Time;durP1;ratioP1;P1;durP2;ratioP2;P2;SDS_P1;SDS_P2;PMS_P1;PMS_P2;Temp;Humidity;BMP_temperature;BMP_pressure;BME280_temperature;BME280_humidity;BME280_pressure;Samples;Min_cycle;Max_cycle;Signal;HPM_P1;HPM_P2
2021/11/29 00:01:36;;;;;;;1.00;1.00;;;-5.80;99.90;;;;;;5032712;28;20203;-72
2021/11/29 00:04:02;;;;;;;0.90;0.90;;;-5.90;99.90;;;;;;5032711;28;20213;-71
2021/11/29 00:06:28;;;;;;;1.03;1.03;;;-6.00;99.90;;;;;;5014862;28;20568;-71
2021/11/29 00:08:54;;;;;;;1.07;1.07;;;-6.00;99.90;;;;;;5011510;28;20235;-71
2021/11/29 00:11:20;;;;;;;0.90;0.90;;;-6.00;99.90;;;;;;5012768;28;20215;-71
2021/11/29 00:13:46;;;;;;;0.90;0.90;;;-6.00;99.90;;;;;;5014265;28;20209;-71
2021/11/29 00:16:11;;;;;;;0.90;0.90;;;-6.00;99.90;;;;;;5012906;28;20211;-71
2021/11/29 00:18:37;;;;;;;1.00;1.00;;;-5.90;99.90;;;;;;5012828;28;20191;-71
2021/11/29 00:21:04;;;;;;;1.00;1.00;;;-6.00;99.90;;;;;;5013012;28;20772;-71
2021/11/29 00:23:30;;;;;;;0.80;0.80;;;-6.00;99.90;;;;;;5012915;28;20253;-70
2021/11/29 00:25:56;;;;;;;0.87;0.87;;;-6.00;99.90;;;;;;5012693;28;20207;-70
2021/11/29 00:28:22;;;;;;;1.00;1.00;;;-6.00;99.90;;;;;;5012407;28;20211;-71
2021/11/29 00:30:48;;;;;;;0.90;0.90;;;-6.00;99.90;;;;;;5012752;28;20289;-70
2021/11/29 00:33:14;;;;;;;1.00;1.00;;;-6.00;99.90;;;;;;5012475;28;20234;-70
2021/11/29 00:35:40;;;;;;;1.00;1.00;;;-6.10;99.90;;;;;;5012340;28;20717;-70
2021/11/29 00:38:08;;;;;;;0.90;0.90;;;-6.20;99.90;;;;;;5011159;28;20242;-70
2021/11/29 00:40:35;;;;;;;0.97;0.97;;;-6.10;99.90;;;;;;5011330;28;20219;-71
2021/11/29 00:43:00;;;;;;;0.90;0.90;;;-6.20;99.90;;;;;;5013723;28;20202;-71
2021/11/29 00:45:26;;;;;;;0.90;0.90;;;-6.10;99.90;;;;;;5012247;28;20206;-71
2021/11/29 00:47:52;;;;;;;0.90;0.90;;;-6.20;99.90;;;;;;5012430;28;20199;-71
2021/11/29 00:50:19;;;;;;;0.90;0.90;;;-6.10;99.90;;;;;;5012282;28;20590;-70
2021/11/29 00:52:45;;;;;;;1.00;1.00;;;-6.10;99.90;;;;;;5010826;28;20235;-71
2021/11/29 00:55:13;;;;;;;0.90;0.90;;;-6.20;99.90;;;;;;5012259;28;20660;-71
2021/11/29 00:57:39;;;;;;;0.90;0.90;;;-6.20;99.90;;;;;;5012026;28;20254;-71
2021/11/29 01:00:08;;;;;;;0.90;0.90;;;-6.20;99.90;;;;;;5012230;28;20206;-71
2021/11/29 01:02:34;;;;;;;0.97;0.97;;;-6.20;99.90;;;;;;5011794;28;20280;-71
2021/11/29 01:05:00;;;;;;;0.83;0.83;;;-6.20;99.90;;;;;;5012058;28;20293;-71
2021/11/29 01:07:25;;;;;;;0.90;0.90;;;-6.20;99.90;;;;;;5010461;28;20226;-71
2021/11/29 01:09:52;;;;;;;0.83;0.83;;;-6.20;99.90;;;;;;5026150;28;20230;-71
2021/11/29 01:12:18;;;;;;;0.90;0.90;;;-6.30;99.90;;;;;;5031877;28;20202;-71
2021/11/29 01:14:44;;;;;;;0.90;0.90;;;-6.30;99.90;;;;;;5013785;28;20221;-71
2021/11/29 01:17:11;;;;;;;0.93;0.93;;;-6.30;99.90;;;;;;5014599;28;20210;-70
2021/11/29 01:19:38;;;;;;;0.90;0.90;;;-6.30;99.90;;;;;;5032716;28;20230;-70
2021/11/29 01:22:04;;;;;;;0.97;0.97;;;-6.30;99.90;;;;;;5013692;28;20198;-70
2021/11/29 01:24:30;;;;;;;0.90;0.90;;;-6.40;99.90;;;;;;5031448;28;20286;-71
2021/11/29 01:26:56;;;;;;;0.80;0.80;;;-6.40;99.90;;;;;;5031484;28;20202;-70
2021/11/29 01:29:22;;;;;;;0.90;0.90;;;-6.30;99.90;;;;;;5031283;28;20209;-71
2021/11/29 01:31:48;;;;;;;0.80;0.80;;;-6.30;99.90;;;;;;5032757;28;20214;-70
2021/11/29 01:34:15;;;;;;;1.00;1.00;;;-6.30;99.90;;;;;;5031395;28;20669;-70
2021/11/29 01:36:41;;;;;;;1.00;1.00;;;-6.30;99.90;;;;;;5031183;28;20539;-71
2021/11/29 01:39:09;;;;;;;0.90;0.90;;;-6.30;99.90;;;;;;5031259;28;20210;-72
2021/11/29 01:41:35;;;;;;;0.90;0.90;;;-6.40;99.90;;;;;;5030896;28;20208;-71
2021/11/29 01:44:00;;;;;;;1.00;1.00;;;-6.30;99.90;;;;;;5014629;28;20198;-71
2021/11/29 01:46:26;;;;;;;0.90;0.90;;;-6.30;99.90;;;;;;5031038;28;20205;-70
2021/11/29 01:48:52;;;;;;;0.90;0.90;;;-6.20;99.90;;;;;;5032310;28;20301;-71
2021/11/29 01:51:18;;;;;;;0.90;0.90;;;-6.20;99.90;;;;;;5032361;28;20221;-72
2021/11/29 01:53:44;;;;;;;0.90;0.90;;;-6.30;99.90;;;;;;5031032;28;20232;-71
2021/11/29 01:56:10;;;;;;;0.90;0.90;;;-6.30;99.90;;;;;;5031156;28;20275;-70
2021/11/29 01:58:38;;;;;;;0.80;0.80;;;-6.20;99.90;;;;;;5030882;28;20242;-70
2021/11/29 02:01:15;;;;;;;0.90;0.90;;;-6.20;99.90;;;;;;5014457;28;20197;-71
2021/11/29 02:03:42;;;;;;;0.80;0.80;;;-6.30;99.90;;;;;;5014486;28;20201;-70
2021/11/29 02:06:08;;;;;;;0.87;0.87;;;-6.30;99.90;;;;;;5031493;28;20628;-71
2021/11/29 02:08:34;;;;;;;1.00;1.00;;;-6.30;99.90;;;;;;5030190;28;20236;-71
2021/11/29 02:11:00;;;;;;;0.90;0.90;;;-6.20;99.90;;;;;;5030374;28;20218;-70
2021/11/29 02:13:26;;;;;;;0.90;0.90;;;-6.20;99.90;;;;;;5029946;28;20294;-71
2021/11/29 02:15:52;;;;;;;0.80;0.80;;;-6.10;99.90;;;;;;5031299;28;20288;-71
2021/11/29 02:18:21;;;;;;;0.97;0.97;;;-6.20;99.90;;;;;;5030975;28;20202;-71
2021/11/29 02:21:08;;;;;;;0.90;0.90;;;-6.10;99.90;;;;;;5030785;28;20206;-71
2021/11/29 02:23:46;;;;;;;0.90;0.90;;;-6.20;99.90;;;;;;5030012;28;20198;-71
2021/11/29 02:26:12;;;;;;;0.70;0.70;;;-6.20;99.90;;;;;;5032778;28;20672;-71
2021/11/29 02:28:41;;;;;;;1.00;1.00;;;-6.20;99.90;;;;;;5035097;28;20681;-72
2021/11/29 02:31:13;;;;;;;0.90;0.90;;;-6.20;99.90;;;;;;5035145;28;20212;-71
2021/11/29 02:33:39;;;;;;;0.90;0.90;;;-6.20;99.90;;;;;;5018070;28;20206;-70
2021/11/29 02:36:05;;;;;;;0.90;0.90;;;-6.20;99.90;;;;;;5034434;28;20229;-70
2021/11/29 02:38:31;;;;;;;0.90;0.90;;;-6.20;99.90;;;;;;5034428;28;20277;-71
2021/11/29 02:40:57;;;;;;;0.80;0.80;;;-6.20;99.90;;;;;;5033662;28;20264;-70
2021/11/29 02:43:23;;;;;;;0.90;0.90;;;-6.20;99.90;;;;;;5035615;28;20198;-70
2021/11/29 02:45:49;;;;;;;1.10;1.10;;;-6.30;99.90;;;;;;5035591;28;20210;-71
2021/11/29 02:48:15;;;;;;;0.90;0.90;;;-6.20;99.90;;;;;;5034317;28;20209;-71
2021/11/29 02:50:41;;;;;;;0.80;0.80;;;-6.20;99.90;;;;;;5016479;28;20209;-71
2021/11/29 02:53:11;;;;;;;1.00;1.00;;;-6.30;99.90;;;;;;5034329;28;20281;-71
2021/11/29 02:55:38;;;;;;;0.80;0.80;;;-6.20;99.90;;;;;;5035368;28;20759;-70
2021/11/29 02:58:05;;;;;;;0.90;0.90;;;-6.20;99.90;;;;;;5034170;28;20186;-71
2021/11/29 03:00:32;;;;;;;1.00;1.00;;;-6.20;99.90;;;;;;5033473;28;20217;-71
2021/11/29 03:03:08;;;;;;;0.90;0.90;;;-6.20;99.90;;;;;;5015729;28;20289;-71
2021/11/29 03:05:34;;;;;;;0.97;0.97;;;-6.20;99.90;;;;;;5016036;28;20690;-71
2021/11/29 03:08:00;;;;;;;1.00;1.00;;;-6.20;99.90;;;;;;5033892;28;20220;-71
2021/11/29 03:10:26;;;;;;;0.90;0.90;;;-6.20;99.90;;;;;;5033740;28;20222;-70
2021/11/29 03:12:52;;;;;;;0.90;0.90;;;-6.20;99.90;;;;;;5016331;28;20692;-70
2021/11/29 03:15:18;;;;;;;0.90;0.90;;;-6.20;99.90;;;;;;5033924;28;20288;-71
2021/11/29 03:17:45;;;;;;;1.00;1.00;;;-6.20;99.90;;;;;;5033991;28;20222;-71
2021/11/29 03:20:12;;;;;;;0.93;0.93;;;-6.20;99.90;;;;;;5035150;28;20203;-71
2021/11/29 03:22:38;;;;;;;0.90;0.90;;;-6.20;99.90;;;;;;5015650;28;20316;-70
2021/11/29 03:25:05;;;;;;;0.90;0.90;;;-6.20;99.90;;;;;;5033763;28;20201;-71
2021/11/29 03:27:30;;;;;;;0.80;0.80;;;-6.20;99.90;;;;;;5033530;28;20653;-70
2021/11/29 03:29:56;;;;;;;1.03;1.03;;;-6.30;99.90;;;;;;5015830;28;20202;-70
2021/11/29 03:32:22;;;;;;;0.90;0.90;;;-6.20;99.90;;;;;;5033385;28;20269;-71
2021/11/29 03:34:49;;;;;;;1.03;1.03;;;-6.20;99.90;;;;;;5034977;28;20630;-71
2021/11/29 03:37:16;;;;;;;0.90;0.90;;;-6.30;99.90;;;;;;5032781;28;20202;-70
2021/11/29 03:39:42;;;;;;;0.93;0.93;;;-6.30;99.90;;;;;;5033484;28;20244;-70
2021/11/29 03:42:07;;;;;;;0.90;0.90;;;-6.30;99.90;;;;;;5016013;28;20666;-71
2021/11/29 03:44:35;;;;;;;0.90;0.90;;;-6.30;99.90;;;;;;5034391;28;20197;-70
2021/11/29 03:47:02;;;;;;;0.90;0.90;;;-6.20;99.90;;;;;;5033275;28;20294;-70
2021/11/29 03:49:28;;;;;;;0.97;0.97;;;-6.20;99.90;;;;;;5033114;28;20202;-70
2021/11/29 03:51:54;;;;;;;0.90;0.90;;;-6.30;99.90;;;;;;5015526;28;20297;-70
2021/11/29 03:54:20;;;;;;;1.00;1.00;;;-6.30;99.90;;;;;;5015312;28;20605;-71
2021/11/29 03:56:47;;;;;;;0.93;0.93;;;-6.30;99.90;;;;;;5033331;28;20214;-71
2021/11/29 03:59:13;;;;;;;0.90;0.90;;;-6.30;99.90;;;;;;5033427;28;20267;-72
2021/11/29 04:01:39;;;;;;;1.00;1.00;;;-6.30;99.90;;;;;;5033576;28;20214;-71
2021/11/29 04:04:05;;;;;;;0.90;0.90;;;-6.30;99.90;;;;;;5034130;28;20209;-71
2021/11/29 04:06:31;;;;;;;0.90;0.90;;;-6.30;99.90;;;;;;5034348;28;20255;-71
2021/11/29 04:08:57;;;;;;;1.00;1.00;;;-6.30;99.90;;;;;;5032692;28;20304;-71
2021/11/29 04:11:23;;;;;;;0.90;0.90;;;-6.30;99.90;;;;;;5032603;28;20202;-70
2021/11/29 04:13:49;;;;;;;0.90;0.90;;;-6.30;99.90;;;;;;5032810;28;20205;-71
2021/11/29 04:16:15;;;;;;;0.90;0.90;;;-6.30;99.90;;;;;;5033991;28;20375;-70
2021/11/29 04:18:42;;;;;;;0.90;0.90;;;-6.20;99.90;;;;;;5032544;28;20198;-70
2021/11/29 04:21:09;;;;;;;0.90;0.90;;;-6.20;99.90;;;;;;5014687;28;20289;-71
2021/11/29 04:23:36;;;;;;;0.90;0.90;;;-6.20;99.90;;;;;;5032449;28;20221;-70
2021/11/29 04:26:02;;;;;;;0.90;0.90;;;-6.20;99.90;;;;;;5015947;28;20218;-70
2021/11/29 04:28:29;;;;;;;0.90;0.90;;;-6.20;99.90;;;;;;5033754;28;20626;-70
2021/11/29 04:30:54;;;;;;;0.90;0.90;;;-6.30;99.90;;;;;;5032590;28;20198;-70
2021/11/29 04:33:21;;;;;;;0.90;0.90;;;-6.30;99.90;;;;;;5032129;28;20711;-71
2021/11/29 04:35:47;;;;;;;0.90;0.90;;;-6.30;99.90;;;;;;5033738;28;20248;-70
2021/11/29 04:38:13;;;;;;;0.90;0.90;;;-6.30;99.90;;;;;;5033605;28;20206;-71
2021/11/29 04:40:40;;;;;;;0.90;0.90;;;-6.30;99.90;;;;;;5031684;28;20676;-70
2021/11/29 04:43:06;;;;;;;0.90;0.90;;;-6.20;99.90;;;;;;5032185;28;20241;-70
2021/11/29 04:45:33;;;;;;;0.90;0.90;;;-6.20;99.90;;;;;;5015610;28;20214;-70
2021/11/29 04:47:58;;;;;;;0.90;0.90;;;-6.20;99.90;;;;;;5032453;28;20653;-72
2021/11/29 04:50:24;;;;;;;0.90;0.90;;;-6.30;99.90;;;;;;5013440;28;20253;-71
2021/11/29 04:52:50;;;;;;;0.83;0.83;;;-6.30;99.90;;;;;;5032429;28;20198;-70
2021/11/29 04:55:16;;;;;;;1.00;1.00;;;-6.40;99.90;;;;;;5033611;28;20224;-71
2021/11/29 04:57:44;;;;;;;0.87;0.87;;;-6.40;99.90;;;;;;5031680;28;20212;-70
2021/11/29 05:00:13;;;;;;;0.90;0.90;;;-6.50;99.90;;;;;;5013867;28;20211;-71
2021/11/29 05:02:39;;;;;;;0.90;0.90;;;-6.40;99.90;;;;;;5031479;28;20617;-70
2021/11/29 05:05:06;;;;;;;1.03;1.03;;;-6.50;99.90;;;;;;5031614;28;20669;-71
2021/11/29 05:07:31;;;;;;;0.90;0.90;;;-6.50;99.90;;;;;;5014741;28;20233;-70
2021/11/29 05:09:57;;;;;;;0.90;0.90;;;-6.40;99.90;;;;;;5032765;28;20222;-71
2021/11/29 05:12:23;;;;;;;0.90;0.90;;;-6.50;99.90;;;;;;5032718;28;20572;-70
2021/11/29 05:14:49;;;;;;;0.90;0.90;;;-6.50;99.90;;;;;;5031511;28;20194;-71
2021/11/29 05:17:17;;;;;;;2.03;1.93;;;-6.40;99.90;;;;;;5031404;28;20206;-71
2021/11/29 05:19:42;;;;;;;0.93;0.93;;;-6.50;99.90;;;;;;5013598;28;20672;-71
2021/11/29 05:22:09;;;;;;;1.00;1.00;;;-6.40;99.90;;;;;;5031341;28;20197;-71
2021/11/29 05:24:35;;;;;;;0.80;0.80;;;-6.50;99.90;;;;;;5032556;28;20202;-71
2021/11/29 05:27:01;;;;;;;0.90;0.90;;;-6.50;99.90;;;;;;5031313;28;20206;-71
2021/11/29 05:29:27;;;;;;;0.90;0.90;;;-6.50;99.90;;;;;;5013412;28;20221;-70
2021/11/29 05:31:52;;;;;;;0.80;0.80;;;-6.50;99.90;;;;;;5031174;28;20243;-70
2021/11/29 05:34:18;;;;;;;0.90;0.90;;;-6.50;99.90;;;;;;5013319;28;20205;-70
2021/11/29 05:36:45;;;;;;;0.90;0.90;;;-6.50;99.90;;;;;;5013274;28;20209;-70
2021/11/29 05:39:11;;;;;;;0.90;0.90;;;-6.50;99.90;;;;;;5013136;28;20634;-71
2021/11/29 05:41:36;;;;;;;0.90;0.90;;;-6.50;99.90;;;;;;5031241;28;20218;-70
2021/11/29 05:44:03;;;;;;;0.90;0.90;;;-6.50;99.90;;;;;;5031600;28;20198;-71
2021/11/29 05:46:28;;;;;;;0.90;0.90;;;-6.50;99.90;;;;;;5030016;28;20281;-71
2021/11/29 05:48:56;;;;;;;0.90;0.90;;;-6.50;99.90;;;;;;5031158;28;20289;-71
2021/11/29 05:51:22;;;;;;;0.90;0.90;;;-6.60;99.90;;;;;;5013089;28;20292;-71
2021/11/29 05:53:48;;;;;;;0.90;0.90;;;-6.60;99.90;;;;;;5031094;28;20348;-71
2021/11/29 05:56:14;;;;;;;0.87;0.87;;;-6.50;99.90;;;;;;5030958;28;20217;-71
2021/11/29 05:58:40;;;;;;;0.90;0.90;;;-6.50;99.90;;;;;;5030687;28;20216;-71
2021/11/29 06:01:06;;;;;;;1.00;1.00;;;-6.60;99.90;;;;;;5034874;28;20213;-71
2021/11/29 06:03:32;;;;;;;0.90;0.90;;;-6.50;99.90;;;;;;5038754;28;20217;-70
2021/11/29 06:05:57;;;;;;;0.90;0.90;;;-6.60;99.90;;;;;;5038547;28;20205;-71
2021/11/29 06:08:23;;;;;;;0.93;0.93;;;-6.50;99.90;;;;;;5019356;28;20209;-71
2021/11/29 06:10:49;;;;;;;1.00;1.00;;;-6.50;99.90;;;;;;5038959;28;20198;-71
2021/11/29 06:13:15;;;;;;;0.90;0.90;;;-6.60;99.90;;;;;;5019626;28;20695;-70
2021/11/29 06:15:42;;;;;;;0.90;0.90;;;-6.60;99.90;;;;;;5037264;28;20194;-70
2021/11/29 06:18:08;;;;;;;0.90;0.90;;;-6.60;99.90;;;;;;5019607;28;20228;-71
2021/11/29 06:20:34;;;;;;;0.90;0.90;;;-6.60;99.90;;;;;;5037161;28;20693;-70
2021/11/29 06:23:00;;;;;;;0.90;0.90;;;-6.60;99.90;;;;;;5037470;28;20221;-70
2021/11/29 06:25:27;;;;;;;0.90;0.90;;;-6.70;99.90;;;;;;5037296;28;20605;-70
2021/11/29 06:27:54;;;;;;;1.00;1.00;;;-6.70;99.90;;;;;;5037273;28;20235;-69
2021/11/29 06:30:21;;;;;;;0.90;0.90;;;-6.60;99.90;;;;;;5019478;28;20217;-70
2021/11/29 06:32:47;;;;;;;1.73;1.63;;;-6.60;99.90;;;;;;5037408;28;20251;-70
2021/11/29 06:35:14;;;;;;;0.90;0.90;;;-6.60;99.90;;;;;;5020341;28;20759;-69
2021/11/29 06:37:45;;;;;;;0.90;0.90;;;-6.70;99.90;;;;;;5037571;28;20210;-70
2021/11/29 06:40:11;;;;;;;0.90;0.90;;;-6.70;99.90;;;;;;5036887;28;20289;-70
2021/11/29 06:42:37;;;;;;;0.90;0.90;;;-6.80;99.90;;;;;;5036960;28;20213;-70
2021/11/29 06:45:04;;;;;;;0.80;0.80;;;-6.80;99.90;;;;;;5019458;28;20580;-71
2021/11/29 06:47:30;;;;;;;0.80;0.80;;;-6.80;99.90;;;;;;5037053;28;20209;-71
2021/11/29 06:49:55;;;;;;;0.90;0.90;;;-6.80;99.90;;;;;;5038556;28;20206;-71
2021/11/29 06:52:21;;;;;;;0.90;0.90;;;-6.90;99.90;;;;;;5037032;28;20259;-71
2021/11/29 06:54:49;;;;;;;0.90;0.90;;;-6.90;99.90;;;;;;5036996;28;20260;-71
2021/11/29 06:57:16;;;;;;;0.93;0.93;;;-6.90;99.90;;;;;;5037128;28;20205;-71
2021/11/29 06:59:43;;;;;;;0.80;0.80;;;-6.90;99.90;;;;;;5036968;28;20214;-71
2021/11/29 07:02:10;;;;;;;0.90;0.90;;;-7.00;99.90;;;;;;5036787;28;20206;-70
2021/11/29 07:04:36;;;;;;;0.90;0.90;;;-7.00;99.90;;;;;;5019262;28;20267;-70
2021/11/29 07:07:02;;;;;;;0.90;0.90;;;-6.90;99.90;;;;;;5037082;28;20209;-70
2021/11/29 07:09:27;;;;;;;0.80;0.80;;;-6.90;99.90;;;;;;5015554;28;20231;-70
2021/11/29 07:11:53;;;;;;;0.90;0.90;;;-6.80;99.90;;;;;;5015135;28;20223;-71
2021/11/29 07:14:19;;;;;;;0.90;0.90;;;-6.90;99.90;;;;;;5013896;28;20662;-70
2021/11/29 07:16:47;;;;;;;0.90;0.90;;;-6.90;99.90;;;;;;5014055;28;20689;-71
2021/11/29 07:19:14;;;;;;;1.20;1.20;;;-6.90;99.90;;;;;;5013892;28;20210;-71
2021/11/29 07:21:40;;;;;;;0.90;0.90;;;-6.80;99.90;;;;;;5015127;28;20202;-71
2021/11/29 07:24:06;;;;;;;0.90;0.90;;;-6.80;99.90;;;;;;5015392;28;20202;-71
2021/11/29 07:26:32;;;;;;;0.90;0.90;;;-6.80;99.90;;;;;;5013277;28;20677;-70
2021/11/29 07:28:58;;;;;;;0.90;0.90;;;-6.80;99.90;;;;;;5014756;28;20199;-70
2021/11/29 07:31:23;;;;;;;0.90;0.90;;;-6.80;99.90;;;;;;5013323;28;20210;-71
2021/11/29 07:33:49;;;;;;;0.90;0.90;;;-6.80;99.90;;;;;;5013713;28;20283;-71
2021/11/29 07:36:15;;;;;;;0.90;0.90;;;-6.90;99.90;;;;;;5013639;28;20573;-71
2021/11/29 07:38:40;;;;;;;0.90;0.90;;;-6.90;99.90;;;;;;5013478;28;20207;-69
2021/11/29 07:41:06;;;;;;;0.90;0.90;;;-7.00;99.90;;;;;;5013428;28;20662;-70
2021/11/29 07:43:32;;;;;;;0.90;0.90;;;-7.10;99.90;;;;;;5013526;28;20211;-70
2021/11/29 07:45:57;;;;;;;0.90;0.90;;;-7.10;99.90;;;;;;5012077;28;20228;-70
2021/11/29 07:48:23;;;;;;;0.80;0.80;;;-7.20;99.90;;;;;;5014634;28;20294;-71
2021/11/29 07:50:49;;;;;;;0.80;0.80;;;-7.30;99.90;;;;;;5012159;28;20234;-70
2021/11/29 07:53:14;;;;;;;1.67;1.57;;;-7.40;99.90;;;;;;5013269;28;20211;-70
2021/11/29 07:55:40;;;;;;;0.80;0.80;;;-7.40;99.90;;;;;;5013107;28;20666;-69
2021/11/29 07:58:06;;;;;;;0.90;0.90;;;-7.40;99.90;;;;;;5013221;28;20205;-70
2021/11/29 08:00:34;;;;;;;2.47;2.07;;;-7.30;99.90;;;;;;5012959;28;20252;-70
2021/11/29 08:03:02;;;;;;;1.00;1.00;;;-7.30;99.90;;;;;;5013111;28;20199;-72
2021/11/29 08:05:30;;;;;;;0.90;0.90;;;-7.20;99.90;;;;;;5014243;28;20199;-71
2021/11/29 08:07:57;;;;;;;0.90;0.90;;;-7.20;99.90;;;;;;5013025;28;20207;-70
2021/11/29 08:10:24;;;;;;;0.90;0.90;;;-7.20;99.90;;;;;;4976081;28;20235;-70
2021/11/29 08:12:50;;;;;;;1.00;1.00;;;-7.20;99.90;;;;;;4993644;28;20204;-70
2021/11/29 08:15:17;;;;;;;0.90;0.90;;;-7.10;99.90;;;;;;4993566;28;20272;-69
2021/11/29 08:17:43;;;;;;;0.90;0.90;;;-7.20;99.90;;;;;;4993670;28;20222;-69
2021/11/29 08:20:09;;;;;;;0.80;0.80;;;-7.20;99.90;;;;;;4993329;28;20683;-70
2021/11/29 08:22:35;;;;;;;1.00;1.00;;;-7.30;99.90;;;;;;4991747;28;20265;-70
2021/11/29 08:25:02;;;;;;;0.77;0.77;;;-7.30;99.90;;;;;;4994531;28;20312;-70
2021/11/29 08:27:28;;;;;;;0.90;0.90;;;-7.20;99.90;;;;;;4993008;28;20230;-71
2021/11/29 08:29:54;;;;;;;2.47;1.20;;;-7.30;99.90;;;;;;4991054;28;20203;-70
2021/11/29 08:32:20;;;;;;;1.00;1.00;;;-7.30;99.90;;;;;;4991740;28;20230;-70
2021/11/29 08:34:46;;;;;;;1.03;1.03;;;-7.20;99.90;;;;;;4993190;28;20278;-70
2021/11/29 08:37:12;;;;;;;0.80;0.80;;;-7.20;99.90;;;;;;4991701;28;20212;-70
2021/11/29 08:39:39;;;;;;;0.90;0.90;;;-7.00;99.90;;;;;;4992866;28;20207;-70
2021/11/29 08:42:05;;;;;;;0.90;0.90;;;-7.00;99.90;;;;;;4992792;28;20231;-70
2021/11/29 08:44:31;;;;;;;0.90;0.90;;;-6.90;99.90;;;;;;4991548;28;20204;-70
2021/11/29 08:46:57;;;;;;;0.90;0.90;;;-6.90;99.90;;;;;;4992807;28;20295;-70
2021/11/29 08:49:25;;;;;;;0.90;0.90;;;-6.80;99.90;;;;;;4993874;28;20207;-70
2021/11/29 08:51:52;;;;;;;2.17;1.97;;;-6.80;99.90;;;;;;4991490;28;20298;-69
2021/11/29 08:54:18;;;;;;;6.00;3.83;;;-6.80;99.90;;;;;;4992874;28;20204;-71
2021/11/29 08:56:46;;;;;;;1.00;1.00;;;-6.70;99.90;;;;;;4993874;28;20506;-70
2021/11/29 08:59:13;;;;;;;0.90;0.90;;;-6.60;99.90;;;;;;4992749;28;20207;-70
2021/11/29 09:01:39;;;;;;;3.73;2.70;;;-6.60;99.90;;;;;;4992295;28;20215;-70
2021/11/29 09:04:04;;;;;;;0.90;0.90;;;-6.50;99.90;;;;;;4992616;28;20210;-70
2021/11/29 09:06:30;;;;;;;0.87;0.87;;;-6.50;99.90;;;;;;4992311;28;20562;-70
2021/11/29 09:08:56;;;;;;;1.00;1.00;;;-6.50;99.90;;;;;;5006909;28;20355;-70
2021/11/29 09:11:22;;;;;;;0.90;0.90;;;-6.50;99.90;;;;;;5031621;28;20206;-70
2021/11/29 09:13:48;;;;;;;1.07;1.03;;;-6.50;99.90;;;;;;5013585;28;20209;-70
2021/11/29 09:16:16;;;;;;;1.07;1.07;;;-6.60;99.90;;;;;;5032976;28;20656;-70
2021/11/29 09:18:42;;;;;;;1.63;1.53;;;-6.50;99.90;;;;;;5031385;28;20206;-70
2021/11/29 09:21:11;;;;;;;1.23;1.17;;;-6.60;99.90;;;;;;5013636;28;20237;-71
2021/11/29 09:23:38;;;;;;;1.00;1.00;;;-6.60;99.90;;;;;;5031259;28;20198;-71
2021/11/29 09:26:04;;;;;;;0.90;0.90;;;-6.60;99.90;;;;;;5013230;28;20685;-70
2021/11/29 09:28:30;;;;;;;1.00;1.00;;;-6.50;99.90;;;;;;5032534;28;20297;-70
2021/11/29 09:30:56;;;;;;;0.90;0.90;;;-6.50;99.90;;;;;;5031308;28;20277;-70
2021/11/29 09:33:22;;;;;;;1.00;1.00;;;-6.50;99.90;;;;;;5031335;28;20612;-71
2021/11/29 09:35:49;;;;;;;1.93;1.83;;;-6.50;99.90;;;;;;5013084;28;20205;-73
2021/11/29 09:38:15;;;;;;;1.00;1.00;;;-6.50;99.90;;;;;;5031060;28;20666;-71
2021/11/29 09:40:42;;;;;;;0.83;0.83;;;-6.50;99.90;;;;;;5030787;28;20224;-71
2021/11/29 09:43:15;;;;;;;0.80;0.80;;;-6.50;99.90;;;;;;5031329;28;20198;-70
2021/11/29 09:45:43;;;;;;;0.70;0.70;;;-6.40;99.90;;;;;;5013837;28;20214;-72
2021/11/29 09:48:10;;;;;;;0.83;0.83;;;-6.30;99.90;;;;;;5013280;28;20205;-71
2021/11/29 09:50:39;;;;;;;0.90;0.90;;;-6.30;99.90;;;;;;5013292;28;20217;-70
2021/11/29 09:53:06;;;;;;;0.80;0.80;;;-6.20;99.90;;;;;;5030262;28;20649;-71
2021/11/29 09:55:33;;;;;;;0.90;0.90;;;-6.20;99.90;;;;;;5030866;28;20237;-70
2021/11/29 09:57:59;;;;;;;0.90;0.90;;;-6.20;99.90;;;;;;5013708;28;20715;-71
2021/11/29 10:00:29;;;;;;;0.90;0.90;;;-6.20;99.90;;;;;;5031228;28;20210;-70
2021/11/29 10:02:55;;;;;;;0.80;0.80;;;-6.20;99.90;;;;;;5030981;28;20301;-70
2021/11/29 10:05:23;;;;;;;1.10;1.10;;;-6.10;99.90;;;;;;5030099;28;20221;-71
2021/11/29 10:07:50;;;;;;;1.83;1.73;;;-6.10;99.90;;;;;;5030543;28;20229;-70
2021/11/29 10:10:18;;;;;;;0.80;0.80;;;-6.10;99.90;;;;;;5030763;28;20233;-70
2021/11/29 10:12:48;;;;;;;0.93;0.93;;;-6.00;99.90;;;;;;5030701;28;20234;-70
2021/11/29 10:15:20;;;;;;;1.00;1.00;;;-6.00;99.90;;;;;;5032081;28;20209;-70
2021/11/29 10:17:47;;;;;;;0.90;0.90;;;-6.00;99.90;;;;;;5012967;28;20210;-71
2021/11/29 10:20:13;;;;;;;0.83;0.83;;;-6.00;99.90;;;;;;5030885;28;20210;-70
2021/11/29 10:22:39;;;;;;;0.80;0.80;;;-5.90;99.90;;;;;;5030380;28;20272;-70
2021/11/29 10:25:18;;;;;;;1.00;1.00;;;-5.90;99.90;;;;;;5030548;28;20206;-69
2021/11/29 10:27:45;;;;;;;0.90;0.90;;;-5.80;99.90;;;;;;5030461;28;20300;-69
2021/11/29 10:30:17;;;;;;;1.00;1.00;;;-5.80;99.90;;;;;;5032006;28;20657;-69
2021/11/29 10:32:45;;;;;;;1.00;1.00;;;-5.70;99.90;;;;;;5030419;28;20695;-69
2021/11/29 10:35:14;;;;;;;0.80;0.80;;;-5.80;99.90;;;;;;5030716;28;20229;-70
2021/11/29 10:37:43;;;;;;;0.80;0.80;;;-5.80;99.90;;;;;;5031903;28;20363;-70
2021/11/29 10:40:12;;;;;;;1.43;1.33;;;-5.80;99.90;;;;;;5030389;28;20210;-71
2021/11/29 10:42:38;;;;;;;0.87;0.87;;;-5.80;99.90;;;;;;5031730;28;20263;-69
2021/11/29 10:45:05;;;;;;;1.00;1.00;;;-5.80;99.90;;;;;;5030642;28;20676;-69
2021/11/29 10:47:33;;;;;;;0.90;0.90;;;-5.90;99.90;;;;;;5013608;28;20559;-69
2021/11/29 10:50:01;;;;;;;0.87;0.87;;;-5.90;99.90;;;;;;5016551;28;20202;-69
2021/11/29 10:52:30;;;;;;;0.80;0.80;;;-5.90;99.90;;;;;;5034184;28;20569;-69
2021/11/29 10:54:57;;;;;;;0.80;0.80;;;-6.00;99.90;;;;;;5035626;28;20206;-69
2021/11/29 10:57:24;;;;;;;0.90;0.90;;;-5.90;99.90;;;;;;5016209;28;20320;-69
2021/11/29 10:59:51;;;;;;;0.87;0.87;;;-5.90;99.90;;;;;;5016472;28;20238;-71
2021/11/29 11:02:23;;;;;;;0.70;0.70;;;-5.80;99.90;;;;;;5035246;28;20209;-71
2021/11/29 11:05:08;;;;;;;0.93;0.93;;;-5.70;99.90;;;;;;5035414;28;20229;-71
2021/11/29 11:07:36;;;;;;;1.00;1.00;;;-5.70;99.90;;;;;;5033677;28;20218;-70
2021/11/29 11:10:06;;;;;;;0.90;0.90;;;-5.80;99.90;;;;;;5033824;28;20245;-69
2021/11/29 11:12:35;;;;;;;0.93;0.93;;;-5.90;99.90;;;;;;5034975;28;20193;-71
2021/11/29 11:15:17;;;;;;;0.90;0.90;;;-5.90;99.90;;;;;;5034102;28;20209;-71
2021/11/29 11:17:55;;;;;;;0.90;0.90;;;-5.90;99.90;;;;;;5001741;28;20213;-72
2021/11/29 11:20:21;;;;;;;0.80;0.80;;;-5.90;99.90;;;;;;5015501;28;20209;-71
2021/11/29 11:22:51;;;;;;;0.90;0.90;;;-5.80;99.90;;;;;;5033669;28;20281;-70
2021/11/29 11:25:24;;;;;;;0.80;0.80;;;-5.80;99.90;;;;;;5033853;28;20205;-70
2021/11/29 11:27:57;;;;;;;0.90;0.90;;;-5.80;99.90;;;;;;5016867;28;20541;-71
2021/11/29 11:30:25;;;;;;;0.90;0.90;;;-5.90;99.90;;;;;;5016622;28;20689;-70
2021/11/29 11:32:59;;;;;;;0.90;0.90;;;-5.70;99.90;;;;;;5033738;28;20651;-71
2021/11/29 11:35:29;;;;;;;0.70;0.70;;;-5.60;99.90;;;;;;5033072;28;20691;-72
2021/11/29 11:38:00;;;;;;;0.90;0.90;;;-5.70;99.90;;;;;;5016385;28;20566;-72
2021/11/29 11:40:35;;;;;;;0.80;0.80;;;-5.80;99.90;;;;;;5033047;28;20564;-71
2021/11/29 11:43:04;;;;;;;0.90;0.90;;;-5.90;99.90;;;;;;5033360;28;20201;-71
2021/11/29 11:45:33;;;;;;;1.67;1.57;;;-5.90;99.90;;;;;;5032646;28;20752;-71
2021/11/29 11:48:00;;;;;;;0.90;0.90;;;-5.90;99.90;;;;;;5033524;28;20210;-71
2021/11/29 11:50:30;;;;;;;0.90;0.90;;;-5.90;99.90;;;;;;5033529;28;20203;-71
2021/11/29 11:52:59;;;;;;;0.80;0.80;;;-6.00;99.90;;;;;;5032812;28;20669;-71
2021/11/29 11:55:31;;;;;;;0.90;0.90;;;-6.00;99.90;;;;;;5034298;28;20664;-71
2021/11/29 11:57:59;;;;;;;0.80;0.80;;;-5.90;99.90;;;;;;5015964;28;20206;-71
2021/11/29 12:00:40;;;;;;;1.03;1.03;;;-5.90;99.90;;;;;;5032982;28;20247;-70
2021/11/29 12:03:29;;;;;;;0.77;0.77;;;-5.80;99.90;;;;;;5033154;28;20217;-70
2021/11/29 12:06:07;;;;;;;0.80;0.80;;;-5.80;99.90;;;;;;5014700;28;20237;-71
2021/11/29 12:08:45;;;;;;;0.70;0.70;;;-5.90;99.90;;;;;;5015844;28;20235;-71
2021/11/29 12:11:35;;;;;;;0.90;0.90;;;-5.90;99.90;;;;;;5032430;28;20198;-70
2021/11/29 12:14:19;;;;;;;0.97;0.97;;;-5.90;99.90;;;;;;5000572;28;20688;-70
2021/11/29 12:16:55;;;;;;;0.90;0.90;;;-5.90;99.90;;;;;;5032624;28;20704;-70
2021/11/29 12:19:47;;;;;;;0.90;0.90;;;-6.00;99.90;;;;;;5032552;28;20244;-72
2021/11/29 12:22:16;;;;;;;0.90;0.90;;;-6.10;99.90;;;;;;5014724;28;20213;-72
2021/11/29 12:24:48;;;;;;;0.90;0.90;;;-6.10;99.90;;;;;;5014981;28;20280;-71
2021/11/29 12:27:15;;;;;;;0.90;0.90;;;-6.10;99.90;;;;;;5032573;28;20689;-71
2021/11/29 12:29:46;;;;;;;0.90;0.90;;;-6.20;99.90;;;;;;5032324;28;20214;-71
2021/11/29 12:32:14;;;;;;;0.83;0.83;;;-6.30;99.90;;;;;;5032446;28;20202;-70
2021/11/29 12:34:50;;;;;;;0.80;0.80;;;-6.30;99.90;;;;;;5032396;28;20723;-71
2021/11/29 12:37:25;;;;;;;0.80;0.80;;;-6.40;99.90;;;;;;5033730;28;20286;-71
2021/11/29 12:39:54;;;;;;;0.90;0.90;;;-6.40;99.90;;;;;;5032260;28;20601;-72
2021/11/29 12:42:23;;;;;;;0.90;0.90;;;-6.50;99.90;;;;;;5032078;28;20680;-71
2021/11/29 12:44:54;;;;;;;0.90;0.90;;;-6.50;99.90;;;;;;5032292;28;20215;-71
2021/11/29 12:47:38;;;;;;;0.90;0.90;;;-6.50;99.90;;;;;;5031942;28;20213;-70
2021/11/29 12:50:25;;;;;;;0.93;0.93;;;-6.50;99.90;;;;;;5014413;28;20194;-71